Time;durP1;ratioP1;P1;durP2;ratioP2;P2;SDS_P1;SDS_P2;PMS_P1;PMS_P2;Temp;Humidity;BMP_temperature;BMP_pressure;BME280_temperature;BME280_humidity;BME280_pressure;Samples;Min_cycle;Max_cycle;Signal;HPM_P1;HPM_P2
2023/12/07 00:00:45;;;;;;;81.00;28.40;;;;;;;1.86;77.93;100806.05;682750;1263;139629;-79
2023/12/07 00:16:22;;;;;;;77.70;25.60;;;;;;;1.97;77.81;100808.33;683116;1261;139607;-78
2023/12/07 00:31:59;;;;;;;107.20;34.60;;;;;;;1.92;77.99;100806.83;682952;1262;139803;-79
2023/12/07 00:47:36;;;;;;;;;;;;;;;1.96;78.74;100804.08;683200;1260;139352;-79
2023/12/07 01:03:13;;;;;;;80.50;26.10;;;;;;;2.02;78.69;100812.61;683183;1269;125421;-79
2023/12/07 01:18:50;;;;;;;77.90;27.00;;;;;;;2.06;78.60;100823.10;683053;1259;140292;-80
2023/12/07 01:34:27;;;;;;;93.20;30.30;;;;;;;2.15;78.35;100823.77;675246;1259;140722;-79
2023/12/07 01:50:05;;;;;;;75.20;26.10;;;;;;;2.22;78.44;100825.36;682990;1260;139407;-79
2023/12/07 02:05:43;;;;;;;92.00;30.20;;;;;;;2.23;78.62;100819.80;683107;1257;139649;-79
2023/12/07 02:21:27;;;;;;;77.20;30.40;;;;;;;2.24;78.86;100816.42;683032;1257;139447;-79
2023/12/07 02:37:05;;;;;;;72.60;26.80;;;;;;;2.18;79.02;100823.60;682707;1256;139991;-79
2023/12/07 02:52:42;;;;;;;93.40;29.10;;;;;;;2.03;79.61;100826.34;683086;1259;139706;-80
2023/12/07 03:08:20;;;;;;;62.20;22.90;;;;;;;2.13;79.56;100837.30;682981;1259;140179;-79
2023/12/07 03:23:57;;;;;;;72.80;23.50;;;;;;;2.17;79.37;100843.52;682792;1260;139747;-81
2023/12/07 03:39:34;;;;;;;62.60;23.10;;;;;;;2.20;79.30;100853.41;682905;1260;139213;-80
2023/12/07 03:55:11;;;;;;;65.90;22.60;;;;;;;2.22;79.00;100853.32;682934;1262;139399;-80
2023/12/07 04:10:49;;;;;;;;;;;;;;;2.23;79.25;100861.71;683011;1257;140041;-80
2023/12/07 04:26:25;;;;;;;69.60;25.60;;;;;;;2.24;79.75;100867.87;683023;1260;125670;-81
2023/12/07 04:42:04;;;;;;;319.50;85.20;;;;;;;2.33;79.39;100880.44;682712;1260;140081;-81
2023/12/07 04:57:41;;;;;;;;;;;;;;;2.37;79.62;100886.81;683046;1262;140037;-80
2023/12/07 05:13:18;;;;;;;119.40;33.80;;;;;;;2.55;79.00;100894.16;683138;1259;126077;-80
2023/12/07 05:28:55;;;;;;;91.30;28.60;;;;;;;2.44;79.18;100899.11;683143;1261;139622;-80
2023/12/07 05:44:32;;;;;;;107.30;33.90;;;;;;;2.41;79.60;100903.58;683031;1260;140016;-80
2023/12/07 06:00:09;;;;;;;;;;;;;;;2.45;79.68;100906.52;682977;1259;140439;-81
2023/12/07 06:15:47;;;;;;;77.00;27.90;;;;;;;2.39;79.49;100918.48;683156;1261;125875;-80
2023/12/07 06:31:24;;;;;;;56.60;23.90;;;;;;;2.32;79.64;100935.02;682899;1261;139346;-80
2023/12/07 06:47:04;;;;;;;;;;;;;;;2.31;79.94;100948.86;682977;1257;139587;-80
2023/12/07 07:02:41;;;;;;;237.30;78.70;;;;;;;2.38;80.00;100946.50;682884;1257;126926;-80
2023/12/07 07:18:20;;;;;;;150.20;50.30;;;;;;;2.47;80.11;100946.48;683005;1260;139642;-80
2023/12/07 07:33:58;;;;;;;140.00;44.40;;;;;;;2.62;80.00;100947.89;683002;1256;139579;-80
2023/12/07 07:49:35;;;;;;;176.80;59.00;;;;;;;2.88;79.79;100944.16;682965;1262;141919;-80
2023/12/07 08:05:12;;;;;;;112.80;43.20;;;;;;;3.09;79.70;100947.00;683200;1260;139479;-80
2023/12/07 08:20:49;;;;;;;112.10;40.40;;;;;;;3.24;79.56;100957.02;682899;1262;140565;-79
2023/12/07 08:36:26;;;;;;;174.90;57.60;;;;;;;3.57;79.50;100968.77;683018;1260;140992;-82
2023/12/07 08:52:04;;;;;;;173.00;52.70;;;;;;;3.67;79.48;100988.89;683279;1272;140864;-82
2023/12/07 09:08:00;;;;;;;456.60;132.80;;;;;;;3.70;79.09;101002.92;682854;1261;139315;-81
2023/12/07 09:23:37;;;;;;;480.60;136.80;;;;;;;3.77;79.06;100993.27;682726;1263;141672;-81
2023/12/07 09:39:14;;;;;;;621.40;207.50;;;;;;;3.89;79.32;100973.31;683063;1263;139790;-80
2023/12/07 09:54:55;;;;;;;341.20;106.80;;;;;;;4.16;79.19;100975.23;682576;1262;140646;-80
2023/12/07 10:10:33;;;;;;;313.50;85.70;;;;;;;4.36;78.85;100974.14;682917;1262;144770;-81
2023/12/07 10:26:12;;;;;;;235.60;62.10;;;;;;;4.47;78.81;100965.06;683176;1264;139146;-81
2023/12/07 10:41:52;;;;;;;186.90;56.70;;;;;;;4.67;78.81;100958.30;683048;1262;139595;-81
2023/12/07 10:57:29;;;;;;;228.80;64.20;;;;;;;4.91;78.46;100960.85;683035;1263;140496;-82
2023/12/07 11:13:24;;;;;;;90.60;32.30;;;;;;;4.72;78.45;100951.45;682878;1263;140288;-81
2023/12/07 11:29:02;;;;;;;206.40;59.90;;;;;;;4.94;78.11;100948.23;683082;1257;139087;-82
2023/12/07 11:44:46;;;;;;;73.50;27.70;;;;;;;4.90;77.85;100949.15;682854;1257;141577;-81
2023/12/07 12:00:27;;;;;;;242.40;82.00;;;;;;;4.85;78.03;100934.10;682828;1260;139647;-81
2023/12/07 12:16:04;;;;;;;184.40;65.40;;;;;;;4.90;77.86;100940.80;682840;1263;140938;-80
2023/12/07 12:32:02;;;;;;;93.40;36.50;;;;;;;4.86;77.69;100941.71;682975;1257;139431;-80
2023/12/07 12:47:40;;;;;;;440.60;147.60;;;;;;;4.65;77.29;100936.91;682894;1262;140815;-81
2023/12/07 13:03:16;;;;;;;189.20;67.80;;;;;;;4.55;77.52;100940.92;683087;1259;140235;-81
2023/12/07 13:18:53;;;;;;;218.80;69.10;;;;;;;4.41;77.78;100927.96;683048;1261;139553;-81
2023/12/07 13:34:30;;;;;;;445.10;135.30;;;;;;;4.38;78.00;100930.37;675155;1258;10135356;-81
2023/12/07 13:50:15;;;;;;;578.50;183.80;;;;;;;4.17;78.08;100934.90;682833;1260;141682;-81
2023/12/07 14:05:52;;;;;;;261.50;82.50;;;;;;;4.10;77.99;100947.02;682828;1261;141662;-81
2023/12/07 14:21:32;;;;;;;641.90;324.30;;;;;;;3.85;77.88;100948.94;682970;1260;139741;-81
2023/12/07 14:37:23;;;;;;;389.40;113.80;;;;;;;3.63;78.59;100945.18;682954;1260;140839;-80
2023/12/07 14:53:00;;;;;;;603.70;229.80;;;;;;;3.64;78.78;100950.31;682874;1260;139718;-82
2023/12/07 15:08:37;;;;;;;299.30;98.50;;;;;;;3.60;78.74;100953.97;682911;1260;139874;-80
2023/12/07 15:24:14;;;;;;;243.00;88.70;;;;;;;3.58;79.04;100956.83;682746;1257;139716;-80
2023/12/07 15:40:04;;;;;;;175.60;59.70;;;;;;;3.43;79.32;100959.05;683146;1259;139818;-81
2023/12/07 15:55:42;;;;;;;133.30;49.30;;;;;;;3.44;79.46;100970.45;682619;1263;139404;-82
2023/12/07 16:11:18;;;;;;;87.10;36.40;;;;;;;3.51;79.31;100989.84;683160;1258;139627;-81
2023/12/07 16:26:56;;;;;;;162.60;53.60;;;;;;;3.43;79.40;100998.50;682912;1258;142171;-80
2023/12/07 16:42:43;;;;;;;102.10;40.20;;;;;;;3.43;79.18;101008.19;682951;1258;139656;-80
2023/12/07 16:58:21;;;;;;;224.20;87.40;;;;;;;3.37;79.78;101010.91;683107;1259;140441;-80
2023/12/07 17:14:00;;;;;;;138.30;50.80;;;;;;;3.23;79.94;101012.75;682852;1261;139503;-80
2023/12/07 17:29:37;;;;;;;115.80;47.00;;;;;;;3.17;80.06;101010.58;682973;1260;139512;-80
2023/12/07 18:01:25;;;;;;;234.20;90.50;;;;;;;3.11;79.91;101020.38;682865;1259;139287;-81
2023/12/07 18:17:02;;;;;;;130.70;54.40;;;;;;;2.96;79.98;101024.65;682974;1259;140166;-80
2023/12/07 18:32:40;;;;;;;104.50;46.80;;;;;;;2.87;79.94;101021.93;682998;1258;139781;-80
2023/12/07 18:48:17;;;;;;;110.00;41.90;;;;;;;2.88;79.89;101023.79;682788;1261;141348;-80
2023/12/07 19:03:54;;;;;;;230.50;62.30;;;;;;;2.81;79.98;101014.10;683136;1256;139897;-81
2023/12/07 19:19:31;;;;;;;134.90;54.50;;;;;;;2.68;80.27;101010.00;682857;1256;140734;-81
2023/12/07 19:35:08;;;;;;;;;;;;;;;2.67;80.10;101012.95;683127;1260;139590;-81
2023/12/07 19:50:45;;;;;;;121.30;40.60;;;;;;;2.64;80.18;101020.20;683131;1259;125404;-80
2023/12/07 20:06:24;;;;;;;122.60;42.10;;;;;;;2.59;79.98;101018.64;682794;1262;140309;-81
2023/12/07 20:22:09;;;;;;;136.80;46.00;;;;;;;2.54;80.29;101018.51;682923;1262;141115;-81
2023/12/07 20:37:46;;;;;;;163.10;59.10;;;;;;;2.59;80.10;101021.60;682712;1261;139605;-81
2023/12/07 20:53:23;;;;;;;111.90;41.60;;;;;;;2.53;79.83;101025.50;682707;1257;139885;-80
2023/12/07 21:09:00;;;;;;;96.30;35.30;;;;;;;2.41;79.87;101030.12;683056;1257;140810;-81
2023/12/07 21:25:03;;;;;;;124.40;42.40;;;;;;;2.34;80.05;101038.20;683041;1257;140765;-80
2023/12/07 21:40:39;;;;;;;137.90;40.90;;;;;;;2.30;80.15;101042.65;683040;1261;141771;-81
2023/12/07 21:56:19;;;;;;;;;;;;;;;2.36;80.00;101038.63;682899;1259;141832;-81
2023/12/07 22:11:57;;;;;;;88.90;35.20;;;;;;;2.26;79.92;101031.63;683009;1261;126886;-80
2023/12/07 22:27:34;;;;;;;116.90;43.90;;;;;;;2.20;79.95;101031.35;682665;1262;140012;-80
2023/12/07 22:43:11;;;;;;;116.30;38.10;;;;;;;2.15;79.97;101032.41;682515;1263;141142;-81
2023/12/07 22:58:48;;;;;;;;;;;;;;;1.96;79.73;101024.20;682879;1261;139400;-80
2023/12/07 23:14:25;;;;;;;112.00;37.80;;;;;;;1.84;79.87;101013.61;683075;1257;125545;-80
2023/12/07 23:30:02;;;;;;;95.80;35.30;;;;;;;1.82;79.25;100992.16;682837;1262;140648;-80
2023/12/07 23:45:39;;;;;;;109.90;38.30;;;;;;;1.65;79.07;100968.85;683191;1256;139942;-80
